Time;durP1;ratioP1;P1;durP2;ratioP2;P2;SDS_P1;SDS_P2;PMS_P1;PMS_P2;Temp;Humidity;BMP_temperature;BMP_pressure;BME280_temperature;BME280_humidity;BME280_pressure;Samples;Min_cycle;Max_cycle;Signal;HPM_P1;HPM_P2
2023/09/06 00:00:25;;;;;;;1.58;1.17;;;23.10;99.90;;;;;;4164563;28;20056;-72
2023/09/06 00:02:25;;;;;;;1.85;1.40;;;23.10;99.90;;;;;;4162350;28;20030;-71
2023/09/06 00:04:26;;;;;;;2.58;1.40;;;23.10;99.90;;;;;;4169545;28;20378;-72
2023/09/06 00:06:27;;;;;;;2.28;1.50;;;23.10;99.90;;;;;;4172671;28;20033;-72
2023/09/06 00:08:28;;;;;;;1.73;1.33;;;23.10;99.90;;;;;;4173429;28;20115;-72
2023/09/06 00:10:29;;;;;;;2.05;1.45;;;23.00;99.90;;;;;;4172671;28;20425;-72
2023/09/06 00:12:29;;;;;;;2.28;1.73;;;23.00;99.90;;;;;;4173796;28;20037;-72
2023/09/06 00:14:30;;;;;;;1.38;1.25;;;23.00;99.90;;;;;;4169860;28;20464;-72
2023/09/06 00:16:30;;;;;;;1.65;1.45;;;23.00;99.90;;;;;;4168191;28;20038;-72
2023/09/06 00:18:31;;;;;;;1.45;1.20;;;22.90;99.90;;;;;;4177031;28;20029;-72
2023/09/06 00:20:36;;;;;;;1.48;1.25;;;22.90;99.90;;;;;;4175679;28;20052;-72
2023/09/06 00:22:37;;;;;;;2.15;1.45;;;22.90;99.90;;;;;;4174199;28;20063;-72
2023/09/06 00:24:37;;;;;;;1.90;1.30;;;22.80;99.90;;;;;;4178504;28;20064;-72
2023/09/06 00:26:41;;;;;;;2.80;1.50;;;22.70;99.90;;;;;;4169616;28;20030;-71
2023/09/06 00:28:41;;;;;;;1.83;1.13;;;22.70;99.90;;;;;;4176924;28;20040;-71
2023/09/06 00:30:45;;;;;;;1.58;1.25;;;22.70;99.90;;;;;;4176308;28;20456;-72
2023/09/06 00:32:47;;;;;;;1.38;1.27;;;22.60;99.90;;;;;;4171476;28;20045;-72
2023/09/06 00:34:48;;;;;;;1.50;1.30;;;22.60;99.90;;;;;;4166178;28;20040;-72
2023/09/06 00:36:49;;;;;;;2.03;1.35;;;22.50;99.90;;;;;;4172639;28;20108;-72
2023/09/06 00:38:49;;;;;;;2.08;1.58;;;22.50;99.90;;;;;;4169689;28;20033;-72
2023/09/06 00:40:51;;;;;;;2.20;1.73;;;22.50;99.90;;;;;;4159291;28;20034;-72
2023/09/06 00:42:56;;;;;;;2.00;1.58;;;22.40;99.90;;;;;;4175819;28;20072;-73
2023/09/06 00:44:57;;;;;;;2.38;1.50;;;22.40;99.90;;;;;;4165915;28;20397;-71
2023/09/06 00:46:59;;;;;;;2.60;1.58;;;22.40;99.90;;;;;;4165791;28;20033;-71
2023/09/06 00:49:01;;;;;;;1.75;1.60;;;22.40;99.90;;;;;;4169293;28;20060;-72
2023/09/06 00:51:04;;;;;;;2.05;1.55;;;22.40;99.90;;;;;;4171834;28;20033;-72
2023/09/06 00:53:05;;;;;;;;;;;22.30;99.90;;;;;;4175641;28;20477;-72
2023/09/06 00:55:06;;;;;;;2.40;1.20;;;22.30;99.90;;;;;;4164135;28;19915;-72
2023/09/06 00:57:07;;;;;;;1.90;1.60;;;22.20;99.90;;;;;;4166958;28;20512;-72
2023/09/06 00:59:12;;;;;;;1.83;1.50;;;22.10;99.90;;;;;;4170115;28;20481;-72
2023/09/06 01:01:13;;;;;;;1.60;1.42;;;22.00;99.90;;;;;;4162948;28;20099;-72
2023/09/06 01:03:14;;;;;;;2.30;1.70;;;22.00;99.90;;;;;;4175350;28;20033;-71
2023/09/06 01:05:16;;;;;;;2.15;1.65;;;21.90;99.90;;;;;;4164692;28;20033;-72
2023/09/06 01:07:18;;;;;;;1.58;1.30;;;21.90;99.90;;;;;;4165216;28;20037;-72
2023/09/06 01:09:19;;;;;;;2.08;1.50;;;21.90;99.90;;;;;;4163158;28;20033;-72
2023/09/06 01:11:22;;;;;;;1.63;1.40;;;21.80;99.90;;;;;;4166187;28;20043;-72
2023/09/06 01:13:22;;;;;;;2.10;1.30;;;21.80;99.90;;;;;;4173029;28;20405;-72
2023/09/06 01:15:24;;;;;;;1.95;1.58;;;21.70;99.90;;;;;;4163476;28;20067;-72
2023/09/06 01:17:28;;;;;;;2.40;1.48;;;21.70;99.90;;;;;;4168554;28;20064;-72
2023/09/06 01:19:32;;;;;;;2.63;1.60;;;21.70;99.90;;;;;;4165049;28;20129;-72
2023/09/06 01:21:38;;;;;;;3.55;1.85;;;21.60;99.90;;;;;;4172944;28;20401;-72
2023/09/06 01:23:41;;;;;;;1.88;1.40;;;21.60;99.90;;;;;;4175107;28;20059;-72
2023/09/06 01:25:42;;;;;;;3.17;1.50;;;21.60;99.90;;;;;;4167383;28;20044;-71
2023/09/06 01:27:43;;;;;;;2.28;1.60;;;21.70;99.90;;;;;;4173621;28;20044;-72
2023/09/06 01:29:44;;;;;;;1.45;1.33;;;21.70;99.90;;;;;;4160743;28;20128;-72
2023/09/06 01:31:45;;;;;;;2.60;1.40;;;21.70;99.90;;;;;;4168154;28;20086;-72
2023/09/06 01:33:45;;;;;;;3.85;1.70;;;21.70;99.90;;;;;;4164626;28;20037;-72
2023/09/06 01:35:46;;;;;;;2.08;1.48;;;21.70;99.90;;;;;;4167548;28;20076;-71
2023/09/06 01:37:50;;;;;;;2.22;1.38;;;21.70;99.90;;;;;;4176820;28;20033;-72
2023/09/06 01:39:50;;;;;;;1.30;1.20;;;21.70;99.90;;;;;;4170578;28;20482;-72
2023/09/06 01:41:51;;;;;;;1.50;1.35;;;21.70;99.90;;;;;;4173562;28;20040;-68
2023/09/06 01:43:54;;;;;;;2.63;1.85;;;21.60;99.90;;;;;;4167042;28;20046;-75
2023/09/06 01:45:55;;;;;;;;;;;21.70;99.90;;;;;;4163665;28;20037;-74
2023/09/06 01:47:56;;;;;;;2.17;1.40;;;21.70;99.90;;;;;;4172601;28;19909;-75
2023/09/06 01:49:57;;;;;;;1.50;1.40;;;21.70;99.90;;;;;;4161721;28;20044;-74
2023/09/06 01:52:00;;;;;;;3.28;1.70;;;21.70;99.90;;;;;;4168642;28;20069;-69
2023/09/06 01:54:04;;;;;;;2.28;1.60;;;21.70;99.90;;;;;;4171804;28;20126;-74
2023/09/06 01:56:07;;;;;;;1.70;1.38;;;21.70;99.90;;;;;;4171368;28;20124;-74
2023/09/06 01:58:09;;;;;;;2.08;1.50;;;21.70;99.90;;;;;;4167357;28;20029;-74
2023/09/06 02:00:28;;;;;;;2.40;1.30;;;21.70;99.90;;;;;;4170391;28;20087;-74
2023/09/06 02:02:30;;;;;;;3.28;1.35;;;21.70;99.90;;;;;;4170192;28;20039;-73
2023/09/06 02:04:30;;;;;;;4.68;1.58;;;21.60;99.90;;;;;;4169824;28;20511;-73
2023/09/06 02:06:31;;;;;;;3.25;1.60;;;21.60;99.90;;;;;;4166918;28;20108;-73
2023/09/06 02:08:32;;;;;;;2.25;1.70;;;21.60;99.90;;;;;;4166386;28;20041;-73
2023/09/06 02:10:32;;;;;;;1.85;1.50;;;21.60;99.90;;;;;;4165987;28;20100;-74
2023/09/06 02:12:33;;;;;;;2.13;1.60;;;21.60;99.90;;;;;;4169354;28;20029;-74
2023/09/06 02:14:34;;;;;;;1.98;1.45;;;21.60;99.90;;;;;;4169677;28;20029;-74
2023/09/06 02:16:35;;;;;;;2.40;1.70;;;21.60;99.90;;;;;;4163891;28;20583;-73
2023/09/06 02:18:35;;;;;;;2.92;1.67;;;21.50;99.90;;;;;;4169861;28;20037;-75
2023/09/06 02:20:38;;;;;;;2.40;1.77;;;21.50;99.90;;;;;;4167869;28;20041;-73
2023/09/06 02:22:40;;;;;;;1.80;1.50;;;21.50;99.90;;;;;;4170187;28;20485;-74
2023/09/06 02:24:41;;;;;;;3.67;2.38;;;21.40;99.90;;;;;;4165498;28;20769;-73
2023/09/06 02:26:42;;;;;;;2.17;1.70;;;21.40;99.90;;;;;;4170123;28;20041;-73
2023/09/06 02:28:42;;;;;;;2.67;1.55;;;21.30;99.90;;;;;;4170401;28;20061;-72
2023/09/06 02:30:43;;;;;;;2.38;1.50;;;21.30;99.90;;;;;;4167680;28;20029;-74
2023/09/06 02:32:44;;;;;;;2.05;1.70;;;21.30;99.90;;;;;;4169064;28;20163;-74
2023/09/06 02:34:44;;;;;;;2.85;1.45;;;21.30;99.90;;;;;;4167107;28;20033;-73
2023/09/06 02:36:45;;;;;;;1.85;1.60;;;21.20;99.90;;;;;;4167455;28;20119;-73
2023/09/06 02:38:46;;;;;;;3.17;1.45;;;21.20;99.90;;;;;;4169435;28;20079;-74
2023/09/06 02:40:46;;;;;;;2.35;1.45;;;21.20;99.90;;;;;;4164425;28;20596;-74
2023/09/06 02:42:51;;;;;;;3.67;2.00;;;21.20;99.90;;;;;;4168445;28;20091;-74
2023/09/06 02:44:53;;;;;;;3.08;1.73;;;21.20;99.90;;;;;;4172219;28;20106;-74
2023/09/06 02:46:54;;;;;;;;;;;21.20;99.90;;;;;;4165178;28;20048;-74
2023/09/06 02:48:58;;;;;;;2.90;1.60;;;21.20;99.90;;;;;;4166582;28;19916;-74
2023/09/06 02:50:59;;;;;;;3.42;1.80;;;21.20;99.90;;;;;;4167400;28;20069;-73
2023/09/06 02:53:03;;;;;;;3.03;1.77;;;21.20;99.90;;;;;;4168572;28;20485;-62
2023/09/06 02:55:05;;;;;;;3.80;2.05;;;21.20;99.90;;;;;;4164005;28;20033;-63
2023/09/06 02:57:05;;;;;;;3.78;2.30;;;21.20;99.90;;;;;;4170020;28;20033;-62
2023/09/06 02:59:12;;;;;;;4.05;2.30;;;21.10;99.90;;;;;;4170589;28;20044;-62
2023/09/06 03:01:19;;;;;;;4.10;2.25;;;21.10;99.90;;;;;;4163602;28;20033;-62
2023/09/06 03:03:19;;;;;;;2.85;2.20;;;21.10;99.90;;;;;;4167776;28;20087;-62
2023/09/06 03:05:20;;;;;;;2.97;2.05;;;21.10;99.90;;;;;;4167635;28;20107;-62
2023/09/06 03:07:21;;;;;;;2.33;2.00;;;21.10;99.90;;;;;;4167955;28;20029;-62
2023/09/06 03:09:28;;;;;;;2.85;2.13;;;21.00;99.90;;;;;;4170539;28;20105;-62
2023/09/06 03:11:29;;;;;;;5.00;2.15;;;21.00;99.90;;;;;;4166073;28;20036;-62
2023/09/06 03:13:29;;;;;;;4.28;2.25;;;21.00;99.90;;;;;;4165856;28;20025;-62
2023/09/06 03:15:30;;;;;;;2.00;1.80;;;21.00;99.90;;;;;;4168419;28;20038;-62
2023/09/06 03:17:31;;;;;;;2.58;1.90;;;21.00;99.90;;;;;;4173412;28;20090;-62
2023/09/06 03:19:33;;;;;;;2.30;1.60;;;21.00;99.90;;;;;;4170655;28;20037;-62
2023/09/06 03:21:34;;;;;;;;;;;21.00;99.90;;;;;;4167131;28;20025;-62
2023/09/06 03:23:35;;;;;;;2.30;1.92;;;21.00;99.90;;;;;;4172730;28;20285;-62
2023/09/06 03:25:40;;;;;;;4.10;2.20;;;21.00;99.90;;;;;;4161239;28;20107;-62
2023/09/06 03:27:43;;;;;;;2.30;1.70;;;21.00;99.90;;;;;;4162773;28;20055;-62
2023/09/06 03:29:45;;;;;;;4.45;1.98;;;21.00;99.90;;;;;;4169487;28;20042;-63
2023/09/06 03:31:45;;;;;;;2.50;1.73;;;21.00;99.90;;;;;;4171091;28;20029;-62
2023/09/06 03:33:46;;;;;;;1.65;1.40;;;21.00;99.90;;;;;;4167237;28;20030;-62
2023/09/06 03:35:48;;;;;;;2.53;1.55;;;21.10;99.90;;;;;;4167397;28;20079;-62
2023/09/06 03:37:52;;;;;;;3.47;1.83;;;21.00;99.90;;;;;;4174616;28;20094;-62
2023/09/06 03:39:53;;;;;;;4.20;1.85;;;21.00;99.90;;;;;;4162201;28;20041;-62
2023/09/06 03:42:00;;;;;;;2.25;1.70;;;21.10;99.90;;;;;;4169261;28;20037;-62
2023/09/06 03:44:01;;;;;;;1.95;1.40;;;21.10;99.90;;;;;;4168363;28;20041;-62
2023/09/06 03:46:09;;;;;;;2.05;1.65;;;21.10;99.90;;;;;;4171323;28;20063;-63
2023/09/06 03:48:12;;;;;;;2.75;1.70;;;21.20;99.90;;;;;;4178837;28;20060;-62
2023/09/06 03:50:13;;;;;;;2.92;1.75;;;21.20;99.90;;;;;;4167618;28;20125;-63
2023/09/06 03:52:16;;;;;;;2.30;1.80;;;21.20;99.90;;;;;;4175535;28;20052;-62
2023/09/06 03:54:18;;;;;;;2.55;1.73;;;21.20;99.90;;;;;;4172447;28;20741;-62
2023/09/06 03:56:19;;;;;;;3.13;2.07;;;21.30;99.90;;;;;;4169896;28;20047;-62
2023/09/06 03:58:19;;;;;;;2.40;1.50;;;21.30;99.90;;;;;;4174355;28;20531;-62
2023/09/06 04:00:32;;;;;;;2.10;1.40;;;21.30;99.90;;;;;;4176570;28;20037;-62
2023/09/06 04:02:34;;;;;;;1.85;1.75;;;21.30;99.90;;;;;;4166250;28;20029;-72
2023/09/06 04:04:35;;;;;;;2.05;1.40;;;21.30;99.90;;;;;;4177462;28;20182;-72
2023/09/06 04:06:35;;;;;;;3.58;1.70;;;21.30;99.90;;;;;;4171416;28;20032;-71
2023/09/06 04:08:38;;;;;;;1.67;1.52;;;21.30;99.90;;;;;;4164418;28;20029;-72
2023/09/06 04:10:44;;;;;;;2.78;1.70;;;21.40;99.90;;;;;;4172801;28;20037;-71
2023/09/06 04:12:45;;;;;;;2.55;1.65;;;21.30;99.90;;;;;;4171150;28;20133;-71
2023/09/06 04:14:46;;;;;;;2.55;1.65;;;21.30;99.90;;;;;;4164605;28;20036;-72
2023/09/06 04:16:46;;;;;;;3.00;1.55;;;21.30;99.90;;;;;;4168104;28;20044;-72
2023/09/06 04:18:47;;;;;;;3.67;2.10;;;21.20;99.90;;;;;;4167829;28;20477;-73
2023/09/06 04:20:49;;;;;;;2.28;1.65;;;21.20;99.90;;;;;;4168355;28;20033;-72
2023/09/06 04:22:51;;;;;;;2.57;1.90;;;21.10;99.90;;;;;;4181676;28;20491;-72
2023/09/06 04:24:51;;;;;;;3.33;1.88;;;21.10;99.90;;;;;;4168254;28;20053;-72
2023/09/06 04:26:52;;;;;;;3.03;1.85;;;21.10;99.90;;;;;;4169639;28;20056;-72
2023/09/06 04:28:53;;;;;;;2.33;1.77;;;21.00;99.90;;;;;;4169597;28;20124;-72
2023/09/06 04:30:53;;;;;;;3.33;1.80;;;21.00;99.90;;;;;;4169893;28;20498;-72
2023/09/06 04:32:57;;;;;;;1.67;1.58;;;21.00;99.90;;;;;;4172574;28;20061;-72
2023/09/06 04:34:58;;;;;;;3.78;1.92;;;21.00;99.90;;;;;;4170009;28;20205;-71
2023/09/06 04:37:02;;;;;;;1.90;1.55;;;21.00;99.90;;;;;;4168254;28;20666;-70
2023/09/06 04:39:03;;;;;;;2.75;1.73;;;20.90;99.90;;;;;;4168235;28;20036;-71
2023/09/06 04:41:04;;;;;;;1.95;1.70;;;20.90;99.90;;;;;;4163956;28;20032;-72
2023/09/06 04:43:07;;;;;;;1.98;1.45;;;20.90;99.90;;;;;;4171059;28;20038;-72
2023/09/06 04:45:10;;;;;;;5.25;1.83;;;20.90;99.90;;;;;;4169337;28;20033;-72
2023/09/06 04:47:17;;;;;;;3.50;2.00;;;20.90;99.90;;;;;;4174739;28;20041;-72
2023/09/06 04:49:18;;;;;;;2.33;1.60;;;20.90;99.90;;;;;;4159903;28;20494;-72
2023/09/06 04:51:18;;;;;;;3.80;2.00;;;20.80;99.90;;;;;;4160433;28;20123;-69
2023/09/06 04:53:19;;;;;;;4.40;1.70;;;20.70;99.90;;;;;;4164621;28;20370;-68
2023/09/06 04:55:20;;;;;;;2.42;1.70;;;20.60;99.90;;;;;;4160418;28;20033;-68
2023/09/06 04:57:21;;;;;;;1.75;1.52;;;20.50;99.90;;;;;;4160414;28;20462;-68
2023/09/06 04:59:22;;;;;;;2.75;1.50;;;20.50;99.90;;;;;;4170950;28;20381;-68
2023/09/06 05:01:22;;;;;;;2.35;1.80;;;20.50;99.90;;;;;;4172191;28;20060;-68
2023/09/06 05:03:23;;;;;;;2.78;1.70;;;20.50;99.90;;;;;;4167713;28;20498;-69
2023/09/06 05:05:24;;;;;;;2.38;1.90;;;20.50;99.90;;;;;;4160850;28;20044;-68
2023/09/06 05:07:25;;;;;;;2.50;1.70;;;20.40;99.90;;;;;;4167475;28;20052;-68
2023/09/06 05:09:25;;;;;;;3.15;2.30;;;20.40;99.90;;;;;;4168257;28;20091;-68
2023/09/06 05:11:26;;;;;;;2.42;1.58;;;20.40;99.90;;;;;;4160121;28;20033;-68
2023/09/06 05:13:27;;;;;;;3.42;2.20;;;20.30;99.90;;;;;;4165516;28;20029;-69
2023/09/06 05:15:28;;;;;;;3.47;1.98;;;20.30;99.90;;;;;;4161968;28;20037;-68
2023/09/06 05:17:28;;;;;;;2.95;1.85;;;20.20;99.90;;;;;;4175592;28;20037;-68
2023/09/06 05:19:29;;;;;;;2.22;1.67;;;20.30;99.90;;;;;;4176146;28;20040;-68
2023/09/06 05:21:30;;;;;;;2.83;1.83;;;20.30;99.90;;;;;;4174251;28;20037;-68
2023/09/06 05:23:30;;;;;;;3.20;2.00;;;20.30;99.90;;;;;;4173562;28;20481;-67
2023/09/06 05:25:32;;;;;;;3.17;2.08;;;20.30;99.90;;;;;;4174100;28;20036;-68
2023/09/06 05:27:32;;;;;;;3.33;1.85;;;20.30;99.90;;;;;;4167109;28;20032;-68
2023/09/06 05:29:33;;;;;;;2.75;2.03;;;20.30;99.90;;;;;;4177412;28;20033;-68
2023/09/06 05:31:33;;;;;;;4.13;1.90;;;20.30;99.90;;;;;;4172715;28;20111;-68
2023/09/06 05:33:34;;;;;;;2.28;1.60;;;20.40;99.90;;;;;;4174067;28;20032;-69
2023/09/06 05:35:34;;;;;;;5.75;1.85;;;20.30;99.90;;;;;;4167996;28;20041;-69
2023/09/06 05:37:37;;;;;;;3.50;2.20;;;20.30;99.90;;;;;;4167157;28;20036;-68
2023/09/06 05:39:38;;;;;;;;;;;20.30;99.90;;;;;;4161499;28;20033;-69
2023/09/06 05:41:38;;;;;;;3.65;2.13;;;20.40;99.90;;;;;;4172650;28;19931;-68
2023/09/06 05:43:39;;;;;;;3.00;2.03;;;20.30;99.90;;;;;;4169638;28;20091;-69
2023/09/06 05:45:39;;;;;;;2.90;1.90;;;20.30;99.90;;;;;;4173758;28;20029;-69
2023/09/06 05:47:40;;;;;;;2.15;1.85;;;20.30;99.90;;;;;;4174978;28;20123;-69
2023/09/06 05:49:41;;;;;;;3.90;1.85;;;20.30;99.90;;;;;;4176658;28;20036;-68
2023/09/06 05:51:41;;;;;;;2.35;1.63;;;20.30;99.90;;;;;;4174314;28;20505;-68
2023/09/06 05:53:42;;;;;;;2.88;2.00;;;20.40;99.90;;;;;;4173938;28;20033;-68
2023/09/06 05:55:42;;;;;;;2.50;1.75;;;20.30;99.90;;;;;;4173577;28;20045;-68
2023/09/06 05:57:43;;;;;;;2.70;2.10;;;20.40;99.90;;;;;;4170856;28;20489;-69
2023/09/06 05:59:43;;;;;;;2.75;1.75;;;20.40;99.90;;;;;;4174656;28;20044;-69
2023/09/06 06:01:44;;;;;;;3.00;2.00;;;20.40;99.90;;;;;;4172903;28;20078;-68
2023/09/06 06:03:45;;;;;;;3.10;2.13;;;20.40;99.90;;;;;;4174877;28;20064;-68
2023/09/06 06:05:45;;;;;;;3.78;1.92;;;20.50;99.90;;;;;;4174186;28;20083;-69
2023/09/06 06:07:46;;;;;;;6.47;2.15;;;20.40;99.90;;;;;;4172853;28;20028;-68
2023/09/06 06:09:48;;;;;;;4.60;2.13;;;20.50;99.90;;;;;;4173461;28;20497;-69
2023/09/06 06:11:49;;;;;;;3.50;1.92;;;20.50;99.90;;;;;;4173333;28;20033;-68
2023/09/06 06:13:51;;;;;;;3.65;2.30;;;20.50;99.90;;;;;;4175217;28;20040;-68
2023/09/06 06:15:51;;;;;;;3.17;1.90;;;20.50;99.90;;;;;;4175685;28;20061;-68
2023/09/06 06:17:52;;;;;;;2.30;1.40;;;20.60;99.90;;;;;;4171488;28;20037;-69
2023/09/06 06:19:53;;;;;;;2.85;1.90;;;20.60;99.90;;;;;;4178556;28;20060;-68
2023/09/06 06:21:53;;;;;;;4.72;2.03;;;20.60;99.90;;;;;;4175225;28;20037;-62
2023/09/06 06:23:55;;;;;;;2.80;1.90;;;20.70;99.90;;;;;;4175381;28;20094;-69
2023/09/06 06:25:55;;;;;;;2.88;2.10;;;20.70;99.90;;;;;;4176596;28;20108;-68
2023/09/06 06:27:56;;;;;;;3.42;2.08;;;20.80;99.90;;;;;;4173794;28;20045;-69
2023/09/06 06:29:57;;;;;;;2.45;1.77;;;20.90;99.90;;;;;;4174143;28;20045;-69
2023/09/06 06:31:57;;;;;;;3.63;1.80;;;21.20;99.90;;;;;;4174716;28;20041;-69
2023/09/06 06:33:59;;;;;;;3.25;2.00;;;21.40;99.90;;;;;;4176605;28;20037;-69
2023/09/06 06:35:59;;;;;;;3.05;2.00;;;21.80;99.90;;;;;;4185075;28;20119;-69
2023/09/06 06:38:01;;;;;;;1.92;1.65;;;22.20;99.90;;;;;;4181267;28;20405;-69
2023/09/06 06:40:05;;;;;;;2.83;1.77;;;22.60;99.90;;;;;;4176018;28;20036;-70
2023/09/06 06:42:06;;;;;;;2.95;1.73;;;23.00;99.90;;;;;;4177536;28;20036;-69
2023/09/06 06:44:08;;;;;;;3.20;1.80;;;23.30;99.90;;;;;;4166550;28;20033;-68
2023/09/06 06:46:27;;;;;;;2.13;1.60;;;23.70;99.90;;;;;;4171014;28;20052;-69
2023/09/06 06:48:28;;;;;;;2.47;1.83;;;24.10;99.90;;;;;;4167957;28;20061;-69
2023/09/06 06:50:28;;;;;;;2.97;1.73;;;24.50;99.90;;;;;;4166232;28;20041;-69
2023/09/06 06:52:33;;;;;;;2.08;1.73;;;24.90;99.90;;;;;;4169611;28;20378;-68
2023/09/06 06:54:34;;;;;;;5.55;2.20;;;25.20;99.90;;;;;;4167138;28;20477;-68
2023/09/06 06:56:36;;;;;;;3.83;2.22;;;25.60;99.90;;;;;;4166189;28;20036;-68
2023/09/06 06:58:37;;;;;;;3.33;1.60;;;25.90;99.90;;;;;;4168273;28;20486;-68
2023/09/06 07:00:37;;;;;;;3.85;2.30;;;26.20;99.90;;;;;;4167288;28;20052;-68
2023/09/06 07:02:38;;;;;;;3.60;1.88;;;26.50;99.40;;;;;;4169144;28;20045;-69
2023/09/06 07:04:39;;;;;;;4.60;2.10;;;26.80;98.30;;;;;;4167741;28;20052;-69
2023/09/06 07:06:40;;;;;;;4.38;2.05;;;27.10;97.20;;;;;;4168759;28;20040;-69
2023/09/06 07:08:41;;;;;;;2.40;1.80;;;27.30;97.30;;;;;;4165178;28;20029;-69
2023/09/06 07:10:42;;;;;;;3.05;2.08;;;27.40;97.20;;;;;;4166271;28;20037;-69
2023/09/06 07:12:42;;;;;;;2.75;1.92;;;27.60;97.50;;;;;;4168892;28;20103;-68
2023/09/06 07:14:43;;;;;;;3.25;2.10;;;27.80;96.40;;;;;;4171344;28;20065;-69
2023/09/06 07:16:44;;;;;;;4.32;2.22;;;28.00;95.90;;;;;;4174032;28;20442;-69
2023/09/06 07:18:46;;;;;;;2.50;1.88;;;28.10;95.30;;;;;;4173589;28;20108;-69
2023/09/06 07:20:47;;;;;;;3.30;2.25;;;28.30;95.80;;;;;;4185436;28;20083;-70
2023/09/06 07:22:48;;;;;;;4.32;1.67;;;28.40;93.70;;;;;;4172147;28;20087;-69
2023/09/06 07:24:48;;;;;;;2.80;1.90;;;28.60;94.30;;;;;;4168470;28;20037;-69
2023/09/06 07:26:49;;;;;;;3.45;1.65;;;28.70;93.90;;;;;;4172190;28;20029;-69
2023/09/06 07:28:50;;;;;;;2.25;1.75;;;28.80;93.70;;;;;;4169742;28;20063;-68
2023/09/06 07:30:50;;;;;;;2.80;1.42;;;28.90;93.70;;;;;;4169027;28;20032;-69
2023/09/06 07:32:51;;;;;;;3.05;1.92;;;29.00;93.70;;;;;;4174452;28;20037;-69
2023/09/06 07:34:51;;;;;;;3.65;2.03;;;29.10;91.80;;;;;;4170824;28;20525;-68
2023/09/06 07:36:52;;;;;;;2.83;1.73;;;29.20;92.00;;;;;;4172371;28;20133;-69
2023/09/06 07:38:55;;;;;;;2.95;1.80;;;29.30;92.20;;;;;;4170886;28;20075;-69
2023/09/06 07:41:00;;;;;;;2.40;1.50;;;29.30;91.20;;;;;;4169736;28;20040;-69
2023/09/06 07:43:01;;;;;;;3.75;2.17;;;29.40;91.60;;;;;;4171132;28;20029;-70
2023/09/06 07:45:02;;;;;;;2.22;1.45;;;29.30;91.30;;;;;;4168371;28;20485;-69
2023/09/06 07:47:03;;;;;;;4.20;1.77;;;29.50;92.00;;;;;;4172227;28;20036;-68
2023/09/06 07:49:03;;;;;;;3.90;2.20;;;29.30;90.30;;;;;;4169633;28;20486;-69
2023/09/06 07:51:05;;;;;;;1.73;1.60;;;29.40;90.90;;;;;;4170604;28;20543;-68
2023/09/06 07:53:05;;;;;;;3.55;1.90;;;29.60;91.20;;;;;;4173304;28;20120;-69
2023/09/06 07:55:07;;;;;;;3.35;1.80;;;29.60;91.60;;;;;;4170736;28;20489;-69
2023/09/06 07:57:08;;;;;;;2.42;1.80;;;29.70;91.00;;;;;;4166800;28;20501;-68
2023/09/06 07:59:10;;;;;;;1.92;1.52;;;29.50;89.50;;;;;;4163930;28;20109;-70
2023/09/06 08:01:11;;;;;;;2.78;1.90;;;29.50;90.00;;;;;;4169998;28;21268;-69
2023/09/06 08:03:11;;;;;;;2.83;1.70;;;29.50;89.40;;;;;;4175814;28;20045;-69
2023/09/06 08:05:12;;;;;;;3.28;2.22;;;29.60;90.70;;;;;;4164752;28;20041;-70
2023/09/06 08:07:12;;;;;;;2.00;1.60;;;29.70;90.90;;;;;;4169755;28;20025;-69
2023/09/06 08:09:13;;;;;;;2.15;1.70;;;29.60;90.30;;;;;;4206123;28;20051;-69
2023/09/06 08:11:17;;;;;;;2.42;1.70;;;29.50;89.00;;;;;;4177556;28;20018;-69
2023/09/06 08:13:18;;;;;;;3.75;2.35;;;29.60;89.90;;;;;;4190687;28;20025;-69
2023/09/06 08:15:19;;;;;;;2.88;1.90;;;29.70;89.30;;;;;;4172972;28;20167;-69
2023/09/06 08:17:19;;;;;;;3.00;1.98;;;29.70;89.30;;;;;;4177289;28;20036;-69
2023/09/06 08:19:20;;;;;;;3.22;2.03;;;29.70;89.40;;;;;;4170347;28;20112;-69
2023/09/06 08:21:21;;;;;;;2.88;1.80;;;29.70;88.80;;;;;;4176677;28;20036;-69
2023/09/06 08:23:21;;;;;;;2.67;1.80;;;29.70;89.50;;;;;;4174404;28;20422;-69
2023/09/06 08:25:22;;;;;;;2.38;2.00;;;29.70;89.30;;;;;;4168405;28;20641;-69
2023/09/06 08:27:22;;;;;;;3.15;2.35;;;29.70;89.30;;;;;;4174739;28;20032;-69
2023/09/06 08:29:23;;;;;;;2.72;1.80;;;29.70;88.90;;;;;;4169249;28;20026;-70
2023/09/06 08:31:24;;;;;;;2.22;1.75;;;29.60;88.20;;;;;;4175166;28;20025;-69
2023/09/06 08:33:24;;;;;;;3.05;2.20;;;29.60;88.30;;;;;;4182855;28;20499;-69
2023/09/06 08:35:27;;;;;;;2.63;1.73;;;29.60;89.40;;;;;;4174638;28;20057;-69
2023/09/06 08:37:28;;;;;;;2.25;1.65;;;29.60;88.10;;;;;;4186776;28;20491;-69
2023/09/06 08:39:28;;;;;;;2.53;2.03;;;29.60;88.10;;;;;;4174391;28;20045;-69
2023/09/06 08:41:31;;;;;;;4.10;2.30;;;29.60;87.50;;;;;;4171808;28;20048;-69
2023/09/06 08:43:36;;;;;;;7.10;2.00;;;29.60;87.00;;;;;;4171247;28;20084;-70
2023/09/06 08:45:37;;;;;;;3.22;2.17;;;29.50;88.10;;;;;;4170163;28;20140;-71
2023/09/06 08:47:39;;;;;;;2.88;2.10;;;29.30;87.60;;;;;;4174344;28;20404;-71
2023/09/06 08:49:40;;;;;;;3.80;2.10;;;29.30;87.70;;;;;;4178581;28;20029;-71
2023/09/06 08:51:43;;;;;;;28.35;4.35;;;29.30;87.90;;;;;;4173670;28;20040;-71
2023/09/06 08:53:43;;;;;;;5.05;2.50;;;29.40;90.00;;;;;;4177452;28;20036;-71
2023/09/06 08:55:45;;;;;;;2.38;1.85;;;29.40;88.20;;;;;;4176417;28;20067;-71
2023/09/06 08:57:46;;;;;;;2.78;2.40;;;29.30;86.90;;;;;;4176025;28;20033;-71
2023/09/06 08:59:47;;;;;;;3.63;1.90;;;29.40;87.90;;;;;;4173967;28;20053;-71
2023/09/06 09:01:48;;;;;;;3.60;2.10;;;29.40;87.20;;;;;;4170094;28;20033;-71
2023/09/06 09:03:48;;;;;;;3.40;2.20;;;29.40;86.50;;;;;;4167873;28;20421;-71
2023/09/06 09:05:49;;;;;;;3.17;2.05;;;29.40;87.10;;;;;;4167075;28;20056;-71
2023/09/06 09:08:00;;;;;;;2.35;2.00;;;29.40;86.80;;;;;;4174038;28;20112;-71
2023/09/06 09:10:13;;;;;;;3.92;1.92;;;29.40;87.00;;;;;;4174247;28;20505;-70
2023/09/06 09:12:14;;;;;;;8.15;2.53;;;29.60;86.90;;;;;;4163086;28;20291;-71
2023/09/06 09:14:20;;;;;;;5.82;2.53;;;29.30;85.60;;;;;;4168285;28;20048;-71
2023/09/06 09:16:22;;;;;;;2.72;2.15;;;29.40;85.70;;;;;;4175622;28;20377;-72
2023/09/06 09:18:22;;;;;;;2.80;2.08;;;29.40;85.30;;;;;;4172530;28;20045;-71
2023/09/06 09:20:25;;;;;;;3.13;2.28;;;29.30;85.30;;;;;;4173947;28;20120;-71
2023/09/06 09:22:34;;;;;;;3.38;2.30;;;29.30;86.30;;;;;;4171067;28;20095;-72
2023/09/06 09:24:35;;;;;;;3.22;2.22;;;29.40;87.00;;;;;;4172309;28;20033;-71
2023/09/06 09:26:41;;;;;;;7.07;2.70;;;29.40;86.10;;;;;;4176534;28;20497;-71
2023/09/06 09:28:41;;;;;;;2.75;2.05;;;29.40;85.50;;;;;;4173077;28;20033;-71
2023/09/06 09:30:42;;;;;;;4.07;2.53;;;29.40;85.60;;;;;;4171753;28;20500;-71
2023/09/06 09:32:43;;;;;;;4.25;2.53;;;29.40;84.00;;;;;;4176964;28;20021;-72
2023/09/06 09:34:44;;;;;;;2.90;2.22;;;29.40;85.20;;;;;;4175203;28;20051;-71
2023/09/06 09:36:53;;;;;;;4.32;2.45;;;29.50;86.70;;;;;;4176378;28;20171;-72
2023/09/06 09:38:53;;;;;;;5.82;2.88;;;29.50;84.90;;;;;;4173913;28;20055;-71
2023/09/06 09:41:05;;;;;;;5.32;3.05;;;29.60;84.40;;;;;;4169270;28;20025;-72
2023/09/06 09:43:06;;;;;;;7.35;3.15;;;29.60;83.60;;;;;;4165906;28;20393;-70
2023/09/06 09:45:07;;;;;;;4.45;2.85;;;29.60;84.70;;;;;;4172717;28;20064;-72
2023/09/06 09:47:13;;;;;;;5.25;3.35;;;29.70;84.20;;;;;;4176754;28;20132;-71
2023/09/06 09:49:15;;;;;;;6.00;3.92;;;29.60;82.60;;;;;;4177017;28;20108;-71
2023/09/06 09:51:16;;;;;;;6.30;3.83;;;29.60;82.90;;;;;;4171276;28;20037;-71
2023/09/06 09:53:23;;;;;;;5.28;3.65;;;29.70;82.20;;;;;;4171996;28;20392;-83
2023/09/06 09:55:34;;;;;;;6.20;4.00;;;29.70;81.60;;;;;;4176400;28;20048;-82
2023/09/06 09:57:36;;;;;;;6.88;4.00;;;29.60;80.80;;;;;;4160335;28;20601;-82
2023/09/06 09:59:38;;;;;;;7.50;4.07;;;29.70;81.70;;;;;;4172794;28;20082;-83
2023/09/06 10:01:39;;;;;;;;;;;29.60;81.50;;;;;;4173831;28;20033;-82
2023/09/06 10:03:42;;;;;;;6.70;3.50;;;29.70;82.40;;;;;;4175023;28;19973;-81
2023/09/06 10:05:43;;;;;;;5.70;3.30;;;29.80;82.40;;;;;;4185313;28;20107;-81
2023/09/06 10:07:44;;;;;;;5.15;3.00;;;29.80;82.90;;;;;;4175193;28;20112;-82
2023/09/06 10:09:46;;;;;;;6.13;3.22;;;29.90;83.90;;;;;;4173520;28;20041;-79
2023/09/06 10:11:49;;;;;;;6.45;3.20;;;29.90;81.30;;;;;;4174040;28;20029;-82
2023/09/06 10:13:51;;;;;;;4.57;2.83;;;29.90;83.70;;;;;;4173655;28;20532;-81
2023/09/06 10:15:53;;;;;;;5.03;2.67;;;29.90;81.60;;;;;;4184504;28;20040;-82
2023/09/06 10:17:58;;;;;;;9.73;3.58;;;29.90;80.80;;;;;;4174738;28;20037;-81
2023/09/06 10:19:59;;;;;;;4.10;2.90;;;30.00;81.40;;;;;;4172374;28;20033;-80
2023/09/06 10:22:05;;;;;;;5.40;2.83;;;30.00;80.20;;;;;;4169771;28;20071;-82
2023/09/06 10:24:15;;;;;;;5.00;3.05;;;30.00;79.90;;;;;;4170769;28;20048;-82
2023/09/06 10:26:34;;;;;;;4.80;2.58;;;30.00;81.10;;;;;;4169518;28;20025;-84
2023/09/06 10:28:35;;;;;;;3.97;3.22;;;30.00;78.60;;;;;;4169564;28;20037;-82
2023/09/06 10:30:42;;;;;;;5.38;2.90;;;30.10;79.20;;;;;;4168237;28;20032;-83
2023/09/06 10:32:44;;;;;;;5.20;3.13;;;30.20;79.00;;;;;;4167358;28;20053;-82
2023/09/06 10:34:45;;;;;;;;;;;30.30;79.50;;;;;;4168521;28;20033;-84